sensor_id;sensor_type;location;lat;lon;timestamp;P1;durP1;ratioP1;P2;durP2;ratioP2
65535;SDS011;52145;49.342;9.116;2023-06-26T00:00:17;7.88;;;5.00;;
65535;SDS011;52145;49.342;9.116;2023-06-26T00:02:43;6.07;;;4.53;;
65535;SDS011;52145;49.342;9.116;2023-06-26T00:05:09;9.52;;;4.85;;
65535;SDS011;52145;49.342;9.116;2023-06-26T00:07:35;9.88;;;5.43;;
65535;SDS011;52145;49.342;9.116;2023-06-26T00:10:02;8.15;;;4.72;;
65535;SDS011;52145;49.342;9.116;2023-06-26T00:12:28;7.05;;;5.10;;
65535;SDS011;52145;49.342;9.116;2023-06-26T00:14:54;7.43;;;5.00;;
65535;SDS011;52145;49.342;9.116;2023-06-26T00:17:20;7.18;;;4.95;;
65535;SDS011;52145;49.342;9.116;2023-06-26T00:19:46;9.15;;;5.07;;
65535;SDS011;52145;49.342;9.116;2023-06-26T00:22:12;6.90;;;5.07;;
65535;SDS011;52145;49.342;9.116;2023-06-26T00:24:38;6.22;;;4.70;;
65535;SDS011;52145;49.342;9.116;2023-06-26T00:27:04;7.82;;;5.20;;
65535;SDS011;52145;49.342;9.116;2023-06-26T00:29:30;7.60;;;5.05;;
65535;SDS011;52145;49.342;9.116;2023-06-26T00:31:56;6.93;;;4.75;;
65535;SDS011;52145;49.342;9.116;2023-06-26T00:34:22;7.43;;;5.07;;
65535;SDS011;52145;49.342;9.116;2023-06-26T00:36:48;7.32;;;4.68;;
65535;SDS011;52145;49.342;9.116;2023-06-26T00:39:14;7.18;;;5.13;;
65535;SDS011;52145;49.342;9.116;2023-06-26T00:41:40;7.90;;;5.18;;
65535;SDS011;52145;49.342;9.116;2023-06-26T00:44:06;9.15;;;5.38;;
65535;SDS011;52145;49.342;9.116;2023-06-26T00:46:32;8.45;;;5.15;;
65535;SDS011;52145;49.342;9.116;2023-06-26T00:48:59;7.20;;;5.15;;
65535;SDS011;52145;49.342;9.116;2023-06-26T00:51:29;10.00;;;5.68;;
65535;SDS011;52145;49.342;9.116;2023-06-26T00:53:55;9.15;;;5.75;;
65535;SDS011;52145;49.342;9.116;2023-06-26T00:56:21;7.90;;;4.95;;
65535;SDS011;52145;49.342;9.116;2023-06-26T00:58:47;8.65;;;5.38;;
65535;SDS011;52145;49.342;9.116;2023-06-26T01:01:13;6.93;;;5.20;;
65535;SDS011;52145;49.342;9.116;2023-06-26T01:03:46;7.35;;;5.30;;
65535;SDS011;52145;49.342;9.116;2023-06-26T01:06:16;7.10;;;5.35;;
65535;SDS011;52145;49.342;9.116;2023-06-26T01:08:43;7.07;;;4.93;;
65535;SDS011;52145;49.342;9.116;2023-06-26T01:11:09;7.80;;;5.70;;
65535;SDS011;52145;49.342;9.116;2023-06-26T01:13:35;7.32;;;5.30;;
65535;SDS011;52145;49.342;9.116;2023-06-26T01:16:02;8.48;;;5.05;;
65535;SDS011;52145;49.342;9.116;2023-06-26T01:18:29;8.50;;;5.50;;
65535;SDS011;52145;49.342;9.116;2023-06-26T01:20:56;7.95;;;5.68;;
65535;SDS011;52145;49.342;9.116;2023-06-26T01:28:38;6.68;;;4.80;;
65535;SDS011;52145;49.342;9.116;2023-06-26T01:31:05;8.60;;;5.55;;
65535;SDS011;52145;49.342;9.116;2023-06-26T01:33:31;7.07;;;5.55;;
65535;SDS011;52145;49.342;9.116;2023-06-26T01:35:57;7.13;;;5.20;;
65535;SDS011;52145;49.342;9.116;2023-06-26T01:38:23;6.90;;;5.00;;
65535;SDS011;52145;49.342;9.116;2023-06-26T01:40:49;8.25;;;5.50;;
65535;SDS011;52145;49.342;9.116;2023-06-26T01:43:18;7.22;;;5.22;;
65535;SDS011;52145;49.342;9.116;2023-06-26T01:45:46;9.35;;;5.43;;
65535;SDS011;52145;49.342;9.116;2023-06-26T01:48:13;7.63;;;5.28;;
65535;SDS011;52145;49.342;9.116;2023-06-26T01:50:41;7.40;;;4.72;;
65535;SDS011;52145;49.342;9.116;2023-06-26T01:53:12;7.90;;;5.65;;
65535;SDS011;52145;49.342;9.116;2023-06-26T01:55:51;8.38;;;5.22;;
65535;SDS011;52145;49.342;9.116;2023-06-26T01:58:18;8.40;;;6.05;;
65535;SDS011;52145;49.342;9.116;2023-06-26T02:00:45;8.45;;;5.35;;
65535;SDS011;52145;49.342;9.116;2023-06-26T02:03:11;7.30;;;5.35;;
65535;SDS011;52145;49.342;9.116;2023-06-26T02:05:37;8.65;;;5.70;;
65535;SDS011;52145;49.342;9.116;2023-06-26T02:08:04;7.38;;;5.18;;
65535;SDS011;52145;49.342;9.116;2023-06-26T02:10:30;8.82;;;5.20;;
65535;SDS011;52145;49.342;9.116;2023-06-26T02:12:56;7.63;;;5.35;;
65535;SDS011;52145;49.342;9.116;2023-06-26T02:15:22;8.27;;;5.32;;
65535;SDS011;52145;49.342;9.116;2023-06-26T02:17:48;7.28;;;5.05;;
65535;SDS011;52145;49.342;9.116;2023-06-26T02:20:14;9.27;;;5.53;;
65535;SDS011;52145;49.342;9.116;2023-06-26T02:22:46;9.57;;;5.47;;
65535;SDS011;52145;49.342;9.116;2023-06-26T02:25:13;7.55;;;4.97;;
65535;SDS011;52145;49.342;9.116;2023-06-26T02:27:40;8.55;;;6.07;;
65535;SDS011;52145;49.342;9.116;2023-06-26T02:30:07;8.43;;;5.80;;
65535;SDS011;52145;49.342;9.116;2023-06-26T02:32:34;7.68;;;5.15;;
65535;SDS011;52145;49.342;9.116;2023-06-26T02:38:03;8.20;;;5.55;;
65535;SDS011;52145;49.342;9.116;2023-06-26T02:40:29;8.10;;;5.32;;
65535;SDS011;52145;49.342;9.116;2023-06-26T02:42:55;7.93;;;5.82;;
65535;SDS011;52145;49.342;9.116;2023-06-26T02:45:21;7.03;;;5.20;;
65535;SDS011;52145;49.342;9.116;2023-06-26T02:47:47;7.70;;;5.65;;
65535;SDS011;52145;49.342;9.116;2023-06-26T02:50:13;13.05;;;5.57;;
65535;SDS011;52145;49.342;9.116;2023-06-26T02:52:39;8.88;;;5.25;;
65535;SDS011;52145;49.342;9.116;2023-06-26T02:55:05;9.75;;;5.60;;
65535;SDS011;52145;49.342;9.116;2023-06-26T02:57:31;7.93;;;5.65;;
65535;SDS011;52145;49.342;9.116;2023-06-26T02:59:57;7.78;;;5.55;;
65535;SDS011;52145;49.342;9.116;2023-06-26T03:02:23;7.68;;;5.85;;
65535;SDS011;52145;49.342;9.116;2023-06-26T03:04:49;8.02;;;5.75;;
65535;SDS011;52145;49.342;9.116;2023-06-26T03:07:15;7.75;;;6.00;;
65535;SDS011;52145;49.342;9.116;2023-06-26T03:09:41;8.63;;;5.20;;
65535;SDS011;52145;49.342;9.116;2023-06-26T03:12:07;8.30;;;5.57;;
65535;SDS011;52145;49.342;9.116;2023-06-26T03:14:33;8.00;;;5.28;;
65535;SDS011;52145;49.342;9.116;2023-06-26T03:16:59;10.18;;;5.80;;
65535;SDS011;52145;49.342;9.116;2023-06-26T03:19:28;8.50;;;6.10;;
65535;SDS011;52145;49.342;9.116;2023-06-26T03:21:54;10.23;;;5.95;;
65535;SDS011;52145;49.342;9.116;2023-06-26T03:24:20;9.45;;;6.05;;
65535;SDS011;52145;49.342;9.116;2023-06-26T03:26:46;8.65;;;5.95;;
65535;SDS011;52145;49.342;9.116;2023-06-26T03:29:12;7.07;;;5.10;;
65535;SDS011;52145;49.342;9.116;2023-06-26T03:31:38;9.63;;;5.32;;
65535;SDS011;52145;49.342;9.116;2023-06-26T03:34:04;7.95;;;5.97;;
65535;SDS011;52145;49.342;9.116;2023-06-26T03:36:30;7.35;;;4.97;;
65535;SDS011;52145;49.342;9.116;2023-06-26T03:38:56;9.45;;;5.35;;
65535;SDS011;52145;49.342;9.116;2023-06-26T03:41:22;8.35;;;5.60;;
65535;SDS011;52145;49.342;9.116;2023-06-26T03:43:49;9.90;;;5.63;;
65535;SDS011;52145;49.342;9.116;2023-06-26T03:46:15;7.53;;;5.82;;
65535;SDS011;52145;49.342;9.116;2023-06-26T03:48:40;8.32;;;5.82;;
65535;SDS011;52145;49.342;9.116;2023-06-26T03:51:06;8.68;;;5.20;;
65535;SDS011;52145;49.342;9.116;2023-06-26T03:53:33;8.40;;;5.93;;
65535;SDS011;52145;49.342;9.116;2023-06-26T03:55:59;8.93;;;5.82;;
65535;SDS011;52145;49.342;9.116;2023-06-26T03:58:25;9.70;;;5.78;;
65535;SDS011;52145;49.342;9.116;2023-06-26T04:00:51;10.27;;;5.65;;
65535;SDS011;52145;49.342;9.116;2023-06-26T04:03:18;8.55;;;5.65;;
65535;SDS011;52145;49.342;9.116;2023-06-26T04:05:44;11.85;;;6.15;;
65535;SDS011;52145;49.342;9.116;2023-06-26T04:08:10;7.63;;;5.50;;
65535;SDS011;52145;49.342;9.116;2023-06-26T04:10:36;7.97;;;5.40;;
65535;SDS011;52145;49.342;9.116;2023-06-26T04:13:02;7.60;;;5.28;;
65535;SDS011;52145;49.342;9.116;2023-06-26T04:15:28;7.68;;;5.30;;
65535;SDS011;52145;49.342;9.116;2023-06-26T04:17:54;8.50;;;5.82;;
65535;SDS011;52145;49.342;9.116;2023-06-26T04:20:20;8.20;;;5.00;;
65535;SDS011;52145;49.342;9.116;2023-06-26T04:22:46;8.35;;;5.90;;
65535;SDS011;52145;49.342;9.116;2023-06-26T04:25:12;7.90;;;5.47;;
65535;SDS011;52145;49.342;9.116;2023-06-26T04:27:38;8.40;;;5.85;;
65535;SDS011;52145;49.342;9.116;2023-06-26T04:30:04;8.48;;;5.43;;
65535;SDS011;52145;49.342;9.116;2023-06-26T04:32:30;9.15;;;5.80;;
65535;SDS011;52145;49.342;9.116;2023-06-26T04:34:56;10.25;;;6.25;;
65535;SDS011;52145;49.342;9.116;2023-06-26T04:37:22;10.30;;;6.10;;
65535;SDS011;52145;49.342;9.116;2023-06-26T04:39:49;9.02;;;6.18;;
65535;SDS011;52145;49.342;9.116;2023-06-26T04:42:15;9.20;;;5.60;;
65535;SDS011;52145;49.342;9.116;2023-06-26T04:44:41;8.15;;;5.40;;
65535;SDS011;52145;49.342;9.116;2023-06-26T04:47:07;9.70;;;5.85;;
65535;SDS011;52145;49.342;9.116;2023-06-26T04:49:34;10.10;;;5.70;;
65535;SDS011;52145;49.342;9.116;2023-06-26T04:52:00;9.30;;;5.95;;
65535;SDS011;52145;49.342;9.116;2023-06-26T04:54:26;8.80;;;5.72;;
65535;SDS011;52145;49.342;9.116;2023-06-26T04:56:55;9.00;;;5.95;;
65535;SDS011;52145;49.342;9.116;2023-06-26T04:59:21;7.93;;;5.60;;
65535;SDS011;52145;49.342;9.116;2023-06-26T05:01:47;9.55;;;6.07;;
65535;SDS011;52145;49.342;9.116;2023-06-26T05:04:14;9.15;;;6.45;;
65535;SDS011;52145;49.342;9.116;2023-06-26T05:06:40;8.05;;;5.28;;
65535;SDS011;52145;49.342;9.116;2023-06-26T05:09:06;9.82;;;5.95;;
65535;SDS011;52145;49.342;9.116;2023-06-26T05:11:32;7.32;;;5.20;;
65535;SDS011;52145;49.342;9.116;2023-06-26T05:13:58;9.55;;;5.57;;
65535;SDS011;52145;49.342;9.116;2023-06-26T05:16:24;9.30;;;6.13;;
65535;SDS011;52145;49.342;9.116;2023-06-26T05:18:50;10.63;;;5.95;;
65535;SDS011;52145;49.342;9.116;2023-06-26T05:21:17;14.10;;;6.95;;
65535;SDS011;52145;49.342;9.116;2023-06-26T05:23:43;11.10;;;6.70;;
65535;SDS011;52145;49.342;9.116;2023-06-26T05:26:10;10.45;;;6.68;;
65535;SDS011;52145;49.342;9.116;2023-06-26T05:28:38;10.05;;;6.45;;
65535;SDS011;52145;49.342;9.116;2023-06-26T05:31:04;9.68;;;6.75;;
65535;SDS011;52145;49.342;9.116;2023-06-26T05:33:30;10.45;;;6.88;;
65535;SDS011;52145;49.342;9.116;2023-06-26T05:35:56;8.52;;;5.80;;
65535;SDS011;52145;49.342;9.116;2023-06-26T05:38:24;11.15;;;6.57;;
65535;SDS011;52145;49.342;9.116;2023-06-26T05:40:50;12.65;;;6.55;;
65535;SDS011;52145;49.342;9.116;2023-06-26T05:43:16;10.82;;;6.20;;
65535;SDS011;52145;49.342;9.116;2023-06-26T05:45:45;9.65;;;6.22;;
65535;SDS011;52145;49.342;9.116;2023-06-26T05:48:12;9.82;;;5.63;;
65535;SDS011;52145;49.342;9.116;2023-06-26T05:50:38;9.13;;;6.28;;
65535;SDS011;52145;49.342;9.116;2023-06-26T05:53:06;13.15;;;5.90;;
65535;SDS011;52145;49.342;9.116;2023-06-26T05:55:32;9.95;;;6.35;;
65535;SDS011;52145;49.342;9.116;2023-06-26T05:57:58;9.40;;;6.00;;
65535;SDS011;52145;49.342;9.116;2023-06-26T06:00:26;8.70;;;6.22;;
65535;SDS011;52145;49.342;9.116;2023-06-26T06:02:52;9.45;;;6.35;;
65535;SDS011;52145;49.342;9.116;2023-06-26T06:05:19;9.98;;;6.55;;
65535;SDS011;52145;49.342;9.116;2023-06-26T06:07:45;15.38;;;6.53;;
65535;SDS011;52145;49.342;9.116;2023-06-26T06:10:11;8.52;;;6.05;;
65535;SDS011;52145;49.342;9.116;2023-06-26T06:12:37;9.15;;;6.25;;
65535;SDS011;52145;49.342;9.116;2023-06-26T06:15:03;10.73;;;6.70;;
65535;SDS011;52145;49.342;9.116;2023-06-26T06:17:29;10.73;;;6.57;;
65535;SDS011;52145;49.342;9.116;2023-06-26T06:19:55;10.45;;;6.85;;
65535;SDS011;52145;49.342;9.116;2023-06-26T06:22:21;9.13;;;5.95;;
65535;SDS011;52145;49.342;9.116;2023-06-26T06:24:48;9.90;;;6.30;;
65535;SDS011;52145;49.342;9.116;2023-06-26T06:27:14;13.07;;;6.05;;
65535;SDS011;52145;49.342;9.116;2023-06-26T06:29:40;8.77;;;6.28;;
65535;SDS011;52145;49.342;9.116;2023-06-26T06:32:06;8.02;;;6.38;;
65535;SDS011;52145;49.342;9.116;2023-06-26T06:34:32;10.38;;;6.60;;
65535;SDS011;52145;49.342;9.116;2023-06-26T06:36:58;11.48;;;6.10;;
65535;SDS011;52145;49.342;9.116;2023-06-26T06:39:24;8.40;;;6.20;;
65535;SDS011;52145;49.342;9.116;2023-06-26T06:41:50;10.23;;;6.07;;
65535;SDS011;52145;49.342;9.116;2023-06-26T06:44:16;10.57;;;6.72;;
65535;SDS011;52145;49.342;9.116;2023-06-26T06:46:42;8.90;;;6.28;;
65535;SDS011;52145;49.342;9.116;2023-06-26T06:49:08;8.80;;;6.40;;
65535;SDS011;52145;49.342;9.116;2023-06-26T06:51:34;10.23;;;6.65;;
65535;SDS011;52145;49.342;9.116;2023-06-26T06:54:01;11.25;;;7.00;;
65535;SDS011;52145;49.342;9.116;2023-06-26T06:56:27;10.18;;;6.95;;
65535;SDS011;52145;49.342;9.116;2023-06-26T06:58:53;10.98;;;6.03;;
65535;SDS011;52145;49.342;9.116;2023-06-26T07:01:19;11.23;;;6.65;;
65535;SDS011;52145;49.342;9.116;2023-06-26T07:03:45;9.15;;;6.43;;
65535;SDS011;52145;49.342;9.116;2023-06-26T07:06:11;11.75;;;6.70;;
65535;SDS011;52145;49.342;9.116;2023-06-26T07:08:37;8.43;;;5.80;;
65535;SDS011;52145;49.342;9.116;2023-06-26T07:11:03;10.57;;;6.25;;
65535;SDS011;52145;49.342;9.116;2023-06-26T07:13:29;12.63;;;7.22;;
65535;SDS011;52145;49.342;9.116;2023-06-26T07:15:55;10.20;;;6.28;;
65535;SDS011;52145;49.342;9.116;2023-06-26T07:18:20;9.20;;;6.30;;
65535;SDS011;52145;49.342;9.116;2023-06-26T07:20:46;9.85;;;6.50;;
65535;SDS011;52145;49.342;9.116;2023-06-26T07:23:12;12.10;;;9.05;;
65535;SDS011;52145;49.342;9.116;2023-06-26T07:25:38;10.32;;;6.65;;
65535;SDS011;52145;49.342;9.116;2023-06-26T07:28:09;9.65;;;7.00;;
65535;SDS011;52145;49.342;9.116;2023-06-26T07:30:35;7.55;;;5.85;;
65535;SDS011;52145;49.342;9.116;2023-06-26T07:33:01;9.02;;;6.53;;
65535;SDS011;52145;49.342;9.116;2023-06-26T07:35:27;11.60;;;6.47;;
65535;SDS011;52145;49.342;9.116;2023-06-26T07:37:53;8.32;;;5.80;;
65535;SDS011;52145;49.342;9.116;2023-06-26T07:40:19;7.38;;;5.70;;
65535;SDS011;52145;49.342;9.116;2023-06-26T07:42:45;8.40;;;6.20;;
65535;SDS011;52145;49.342;9.116;2023-06-26T07:45:12;9.52;;;5.68;;
65535;SDS011;52145;49.342;9.116;2023-06-26T07:47:38;8.02;;;6.28;;
65535;SDS011;52145;49.342;9.116;2023-06-26T07:50:04;9.48;;;6.07;;
65535;SDS011;52145;49.342;9.116;2023-06-26T07:52:30;9.32;;;5.65;;
65535;SDS011;52145;49.342;9.116;2023-06-26T07:54:57;11.15;;;6.38;;
65535;SDS011;52145;49.342;9.116;2023-06-26T07:57:23;7.93;;;6.32;;
65535;SDS011;52145;49.342;9.116;2023-06-26T07:59:49;10.38;;;6.28;;
65535;SDS011;52145;49.342;9.116;2023-06-26T08:02:15;9.38;;;6.07;;
65535;SDS011;52145;49.342;9.116;2023-06-26T08:04:41;7.68;;;6.32;;
65535;SDS011;52145;49.342;9.116;2023-06-26T08:07:07;9.45;;;6.13;;
65535;SDS011;52145;49.342;9.116;2023-06-26T08:09:33;8.45;;;6.07;;
65535;SDS011;52145;49.342;9.116;2023-06-26T08:11:59;9.20;;;6.28;;
65535;SDS011;52145;49.342;9.116;2023-06-26T08:14:25;7.93;;;5.70;;
65535;SDS011;52145;49.342;9.116;2023-06-26T08:16:51;9.13;;;6.47;;
65535;SDS011;52145;49.342;9.116;2023-06-26T08:19:17;8.15;;;6.18;;
65535;SDS011;52145;49.342;9.116;2023-06-26T08:21:43;8.35;;;6.28;;
65535;SDS011;52145;49.342;9.116;2023-06-26T08:24:09;10.30;;;6.07;;
65535;SDS011;52145;49.342;9.116;2023-06-26T08:26:36;11.45;;;6.10;;
65535;SDS011;52145;49.342;9.116;2023-06-26T08:29:02;7.72;;;6.00;;
65535;SDS011;52145;49.342;9.116;2023-06-26T08:31:35;9.35;;;6.45;;
65535;SDS011;52145;49.342;9.116;2023-06-26T08:34:04;9.00;;;6.28;;
65535;SDS011;52145;49.342;9.116;2023-06-26T08:36:30;9.63;;;6.15;;
65535;SDS011;52145;49.342;9.116;2023-06-26T08:38:56;9.07;;;6.95;;
65535;SDS011;52145;49.342;9.116;2023-06-26T08:41:22;8.30;;;5.75;;
65535;SDS011;52145;49.342;9.116;2023-06-26T08:43:48;7.75;;;5.90;;
65535;SDS011;52145;49.342;9.116;2023-06-26T08:46:16;8.25;;;5.38;;
65535;SDS011;52145;49.342;9.116;2023-06-26T08:48:42;9.77;;;6.22;;
65535;SDS011;52145;49.342;9.116;2023-06-26T08:51:14;11.63;;;6.88;;
65535;SDS011;52145;49.342;9.116;2023-06-26T08:56:22;8.43;;;6.03;;
65535;SDS011;52145;49.342;9.116;2023-06-26T08:58:49;8.23;;;5.43;;
65535;SDS011;52145;49.342;9.116;2023-06-26T09:01:16;8.98;;;6.10;;
65535;SDS011;52145;49.342;9.116;2023-06-26T09:03:43;8.25;;;6.20;;
65535;SDS011;52145;49.342;9.116;2023-06-26T09:06:09;9.80;;;6.15;;
65535;SDS011;52145;49.342;9.116;2023-06-26T09:08:35;7.95;;;5.97;;
65535;SDS011;52145;49.342;9.116;2023-06-26T09:11:01;11.20;;;5.80;;
65535;SDS011;52145;49.342;9.116;2023-06-26T09:13:30;7.88;;;5.50;;
65535;SDS011;52145;49.342;9.116;2023-06-26T09:15:57;8.95;;;5.50;;
65535;SDS011;52145;49.342;9.116;2023-06-26T09:18:23;8.85;;;6.25;;
65535;SDS011;52145;49.342;9.116;2023-06-26T09:20:49;7.90;;;5.05;;
65535;SDS011;52145;49.342;9.116;2023-06-26T09:23:15;9.55;;;5.43;;
65535;SDS011;52145;49.342;9.116;2023-06-26T09:25:42;8.80;;;5.50;;
65535;SDS011;52145;49.342;9.116;2023-06-26T09:28:09;8.55;;;5.35;;
65535;SDS011;52145;49.342;9.116;2023-06-26T09:30:35;9.50;;;5.60;;
65535;SDS011;52145;49.342;9.116;2023-06-26T09:33:17;7.85;;;5.82;;
65535;SDS011;52145;49.342;9.116;2023-06-26T09:35:44;8.43;;;5.10;;
65535;SDS011;52145;49.342;9.116;2023-06-26T09:38:10;9.05;;;5.13;;
65535;SDS011;52145;49.342;9.116;2023-06-26T09:40:37;10.68;;;5.38;;
65535;SDS011;52145;49.342;9.116;2023-06-26T09:43:06;11.05;;;5.70;;
65535;SDS011;52145;49.342;9.116;2023-06-26T09:45:33;7.38;;;5.18;;
65535;SDS011;52145;49.342;9.116;2023-06-26T09:48:00;8.55;;;5.85;;
65535;SDS011;52145;49.342;9.116;2023-06-26T09:50:29;8.43;;;5.00;;
65535;SDS011;52145;49.342;9.116;2023-06-26T09:52:57;8.35;;;5.30;;
65535;SDS011;52145;49.342;9.116;2023-06-26T09:55:23;9.73;;;5.28;;
65535;SDS011;52145;49.342;9.116;2023-06-26T09:57:49;9.25;;;5.43;;
65535;SDS011;52145;49.342;9.116;2023-06-26T10:00:16;7.40;;;5.82;;
65535;SDS011;52145;49.342;9.116;2023-06-26T10:02:42;11.35;;;5.53;;
65535;SDS011;52145;49.342;9.116;2023-06-26T10:05:08;7.15;;;4.85;;
65535;SDS011;52145;49.342;9.116;2023-06-26T10:07:34;11.05;;;5.75;;
65535;SDS011;52145;49.342;9.116;2023-06-26T10:10:02;11.32;;;5.80;;
65535;SDS011;52145;49.342;9.116;2023-06-26T10:12:30;8.13;;;5.32;;
65535;SDS011;52145;49.342;9.116;2023-06-26T10:14:56;7.53;;;5.55;;
65535;SDS011;52145;49.342;9.116;2023-06-26T10:17:22;6.93;;;5.20;;
65535;SDS011;52145;49.342;9.116;2023-06-26T10:19:50;7.88;;;6.03;;
65535;SDS011;52145;49.342;9.116;2023-06-26T10:22:19;8.07;;;5.38;;
65535;SDS011;52145;49.342;9.116;2023-06-26T10:24:47;7.60;;;5.57;;
65535;SDS011;52145;49.342;9.116;2023-06-26T10:27:20;8.57;;;6.00;;
65535;SDS011;52145;49.342;9.116;2023-06-26T10:29:53;7.43;;;6.00;;
65535;SDS011;52145;49.342;9.116;2023-06-26T10:32:20;9.05;;;6.35;;
65535;SDS011;52145;49.342;9.116;2023-06-26T10:34:46;9.82;;;6.00;;
65535;SDS011;52145;49.342;9.116;2023-06-26T10:37:12;13.35;;;6.32;;
65535;SDS011;52145;49.342;9.116;2023-06-26T10:39:51;8.32;;;5.82;;
65535;SDS011;52145;49.342;9.116;2023-06-26T10:42:20;10.40;;;6.15;;
65535;SDS011;52145;49.342;9.116;2023-06-26T10:44:47;11.35;;;5.70;;
65535;SDS011;52145;49.342;9.116;2023-06-26T10:49:55;9.15;;;6.40;;
65535;SDS011;52145;49.342;9.116;2023-06-26T10:52:21;7.60;;;5.72;;
65535;SDS011;52145;49.342;9.116;2023-06-26T10:54:47;9.40;;;5.45;;
65535;SDS011;52145;49.342;9.116;2023-06-26T10:57:13;8.98;;;6.25;;
65535;SDS011;52145;49.342;9.116;2023-06-26T10:59:48;7.35;;;5.88;;
65535;SDS011;52145;49.342;9.116;2023-06-26T11:02:15;8.18;;;6.00;;
65535;SDS011;52145;49.342;9.116;2023-06-26T11:04:45;8.75;;;5.63;;
65535;SDS011;52145;49.342;9.116;2023-06-26T11:07:15;9.60;;;5.68;;
65535;SDS011;52145;49.342;9.116;2023-06-26T11:12:39;12.80;;;5.95;;
65535;SDS011;52145;49.342;9.116;2023-06-26T11:15:11;7.25;;;5.93;;
65535;SDS011;52145;49.342;9.116;2023-06-26T11:17:38;9.85;;;6.47;;
65535;SDS011;52145;49.342;9.116;2023-06-26T11:20:08;7.85;;;6.00;;
65535;SDS011;52145;49.342;9.116;2023-06-26T11:22:34;8.63;;;6.25;;
65535;SDS011;52145;49.342;9.116;2023-06-26T11:25:01;9.80;;;6.00;;
65535;SDS011;52145;49.342;9.116;2023-06-26T11:27:31;7.40;;;5.85;;
65535;SDS011;52145;49.342;9.116;2023-06-26T11:29:57;7.75;;;6.18;;
65535;SDS011;52145;49.342;9.116;2023-06-26T11:32:25;9.07;;;5.53;;
65535;SDS011;52145;49.342;9.116;2023-06-26T11:34:51;9.10;;;5.93;;
65535;SDS011;52145;49.342;9.116;2023-06-26T11:37:17;7.63;;;5.72;;
65535;SDS011;52145;49.342;9.116;2023-06-26T11:39:43;7.53;;;5.53;;
65535;SDS011;52145;49.342;9.116;2023-06-26T11:42:10;8.27;;;5.97;;
65535;SDS011;52145;49.342;9.116;2023-06-26T11:47:03;7.15;;;6.13;;
65535;SDS011;52145;49.342;9.116;2023-06-26T11:49:29;7.88;;;5.38;;
65535;SDS011;52145;49.342;9.116;2023-06-26T11:53:39;7.35;;;5.72;;
65535;SDS011;52145;49.342;9.116;2023-06-26T11:56:12;9.45;;;6.50;;
65535;SDS011;52145;49.342;9.116;2023-06-26T12:01:30;10.02;;;6.18;;
65535;SDS011;52145;49.342;9.116;2023-06-26T12:03:58;10.60;;;5.85;;
65535;SDS011;52145;49.342;9.116;2023-06-26T12:06:25;9.10;;;5.85;;
65535;SDS011;52145;49.342;9.116;2023-06-26T12:08:52;9.48;;;5.80;;
65535;SDS011;52145;49.342;9.116;2023-06-26T12:11:17;9.43;;;6.35;;
65535;SDS011;52145;49.342;9.116;2023-06-26T12:13:45;11.80;;;5.68;;
65535;SDS011;52145;49.342;9.116;2023-06-26T12:16:11;9.45;;;6.88;;
65535;SDS011;52145;49.342;9.116;2023-06-26T12:18:37;8.55;;;6.65;;
65535;SDS011;52145;49.342;9.116;2023-06-26T12:21:05;11.32;;;6.35;;
65535;SDS011;52145;49.342;9.116;2023-06-26T12:23:38;10.82;;;6.40;;
65535;SDS011;52145;49.342;9.116;2023-06-26T12:26:17;8.93;;;5.90;;
65535;SDS011;52145;49.342;9.116;2023-06-26T12:28:44;9.15;;;6.40;;
65535;SDS011;52145;49.342;9.116;2023-06-26T12:31:14;9.35;;;6.40;;
65535;SDS011;52145;49.342;9.116;2023-06-26T12:33:42;9.70;;;6.43;;
65535;SDS011;52145;49.342;9.116;2023-06-26T12:36:11;7.75;;;6.63;;
65535;SDS011;52145;49.342;9.116;2023-06-26T12:38:37;9.93;;;6.25;;
65535;SDS011;52145;49.342;9.116;2023-06-26T12:41:03;10.70;;;6.78;;
65535;SDS011;52145;49.342;9.116;2023-06-26T12:43:29;9.75;;;7.07;;
65535;SDS011;52145;49.342;9.116;2023-06-26T12:45:55;9.40;;;7.50;;
65535;SDS011;52145;49.342;9.116;2023-06-26T12:48:35;26.33;;;7.55;;
65535;SDS011;52145;49.342;9.116;2023-06-26T12:51:10;10.77;;;6.57;;
65535;SDS011;52145;49.342;9.116;2023-06-26T12:53:37;8.85;;;6.50;;
65535;SDS011;52145;49.342;9.116;2023-06-26T12:56:06;8.00;;;6.28;;
65535;SDS011;52145;49.342;9.116;2023-06-26T12:58:33;8.00;;;6.53;;
65535;SDS011;52145;49.342;9.116;2023-06-26T13:00:59;10.65;;;6.32;;
65535;SDS011;52145;49.342;9.116;2023-06-26T13:03:25;8.43;;;6.30;;
65535;SDS011;52145;49.342;9.116;2023-06-26T13:05:51;7.75;;;5.97;;
65535;SDS011;52145;49.342;9.116;2023-06-26T13:08:17;8.75;;;6.53;;
65535;SDS011;52145;49.342;9.116;2023-06-26T13:10:43;7.75;;;5.93;;
65535;SDS011;52145;49.342;9.116;2023-06-26T13:13:10;7.00;;;5.55;;
65535;SDS011;52145;49.342;9.116;2023-06-26T13:15:36;8.27;;;5.88;;
65535;SDS011;52145;49.342;9.116;2023-06-26T13:18:02;9.50;;;5.53;;
65535;SDS011;52145;49.342;9.116;2023-06-26T13:20:28;13.90;;;6.00;;
65535;SDS011;52145;49.342;9.116;2023-06-26T13:22:54;10.88;;;5.47;;
65535;SDS011;52145;49.342;9.116;2023-06-26T13:25:21;8.60;;;5.13;;
65535;SDS011;52145;49.342;9.116;2023-06-26T13:27:47;6.88;;;5.35;;
65535;SDS011;52145;49.342;9.116;2023-06-26T13:30:14;6.35;;;4.70;;
65535;SDS011;52145;49.342;9.116;2023-06-26T13:32:41;8.73;;;4.82;;
65535;SDS011;52145;49.342;9.116;2023-06-26T13:35:07;5.97;;;4.53;;
65535;SDS011;52145;49.342;9.116;2023-06-26T13:37:34;9.75;;;4.78;;
65535;SDS011;52145;49.342;9.116;2023-06-26T13:40:01;6.45;;;4.57;;
65535;SDS011;52145;49.342;9.116;2023-06-26T13:42:28;6.22;;;4.25;;
65535;SDS011;52145;49.342;9.116;2023-06-26T13:44:54;8.38;;;4.13;;
65535;SDS011;52145;49.342;9.116;2023-06-26T13:47:20;8.35;;;4.22;;
65535;SDS011;52145;49.342;9.116;2023-06-26T13:49:46;7.70;;;4.13;;
65535;SDS011;52145;49.342;9.116;2023-06-26T13:52:12;8.20;;;4.20;;
65535;SDS011;52145;49.342;9.116;2023-06-26T13:54:38;6.45;;;3.90;;
65535;SDS011;52145;49.342;9.116;2023-06-26T13:57:06;7.15;;;4.85;;
65535;SDS011;52145;49.342;9.116;2023-06-26T13:59:32;5.80;;;4.13;;
65535;SDS011;52145;49.342;9.116;2023-06-26T14:01:58;6.40;;;4.13;;
65535;SDS011;52145;49.342;9.116;2023-06-26T14:04:24;6.55;;;3.95;;
65535;SDS011;52145;49.342;9.116;2023-06-26T14:06:50;8.40;;;3.92;;
65535;SDS011;52145;49.342;9.116;2023-06-26T14:09:16;8.93;;;3.80;;
65535;SDS011;52145;49.342;9.116;2023-06-26T14:11:43;5.97;;;4.13;;
65535;SDS011;52145;49.342;9.116;2023-06-26T14:14:09;7.75;;;3.72;;
65535;SDS011;52145;49.342;9.116;2023-06-26T14:16:35;5.78;;;3.53;;
65535;SDS011;52145;49.342;9.116;2023-06-26T14:19:01;7.35;;;4.28;;
65535;SDS011;52145;49.342;9.116;2023-06-26T14:21:27;6.25;;;3.97;;
65535;SDS011;52145;49.342;9.116;2023-06-26T14:23:55;7.43;;;4.10;;
65535;SDS011;52145;49.342;9.116;2023-06-26T14:26:21;6.85;;;3.75;;
65535;SDS011;52145;49.342;9.116;2023-06-26T14:28:47;9.35;;;4.25;;
65535;SDS011;52145;49.342;9.116;2023-06-26T14:31:13;5.93;;;3.90;;
65535;SDS011;52145;49.342;9.116;2023-06-26T14:33:39;6.85;;;5.32;;
65535;SDS011;52145;49.342;9.116;2023-06-26T14:36:05;12.40;;;5.47;;
65535;SDS011;52145;49.342;9.116;2023-06-26T14:38:31;5.85;;;4.80;;
65535;SDS011;52145;49.342;9.116;2023-06-26T14:40:57;8.23;;;5.35;;
65535;SDS011;52145;49.342;9.116;2023-06-26T14:43:23;9.82;;;5.45;;
65535;SDS011;52145;49.342;9.116;2023-06-26T14:45:49;9.20;;;6.15;;
65535;SDS011;52145;49.342;9.116;2023-06-26T14:48:15;10.00;;;6.53;;
65535;SDS011;52145;49.342;9.116;2023-06-26T14:50:41;11.15;;;6.93;;
65535;SDS011;52145;49.342;9.116;2023-06-26T14:53:07;10.30;;;6.55;;
65535;SDS011;52145;49.342;9.116;2023-06-26T14:55:33;9.70;;;6.75;;
65535;SDS011;52145;49.342;9.116;2023-06-26T14:57:59;11.80;;;7.50;;
65535;SDS011;52145;49.342;9.116;2023-06-26T15:00:25;11.10;;;7.30;;
65535;SDS011;52145;49.342;9.116;2023-06-26T15:02:52;9.00;;;7.38;;
65535;SDS011;52145;49.342;9.116;2023-06-26T15:05:19;9.20;;;7.50;;